Terminal Aerodrome Forecast
Issued by NWS Twin Cities, MN

Home | Current Version | Previous Version | Text Only | Print | Product List | Glossary On
Versions: 1 2 3 4 5 6 7 8 9 10 11 12 13 14 15
414
FTUS43 KMPX 110543
TAFEAU
TAF
KEAU 110543Z 1106/1206 09005KT 1 1/2SM -SN OVC025
     FM111100 08008KT 3/4SM -SN BKN007 OVC014
     FM111700 07004KT 2SM -SN SCT007 OVC015
     FM112200 36003KT P6SM OVC015
     FM120200 29006KT P6SM OVC020=

USA.gov is the U.S. government's official web portal to all federal, state and local government web resources and services.